Terminal Aerodrome Forecast
Issued by NWS

Home | Current Version | Previous Version | Text Only | Print | Product List | Glossary On
Versions: 1 2 3 4 5 6 7 8 9 10 11 12 13 14 15 16
631
FTUS43 KLSX 282323
TAFCPS
TAF
KCPS 282323Z 2900/2924 19013KT P6SM VCTS SCT030 BKN050CB
     FM290200 23006KT P6SM FEW050 SCT250
     FM291600 29006KT P6SM FEW050 SCT250=

USA.gov is the U.S. government's official web portal to all federal, state and local government web resources and services.